Time;durP1;ratioP1;P1;durP2;ratioP2;P2;SDS_P1;SDS_P2;PMS_P1;PMS_P2;Temp;Humidity;BMP_temperature;BMP_pressure;BME280_temperature;BME280_humidity;BME280_pressure;Samples;Min_cycle;Max_cycle;Signal;HPM_P1;HPM_P2
2023/12/22 00:01:07;;;;;;;28.42;6.63;;;11.10;99.90;;;;;;5137992;27;20075;-72
2023/12/22 00:03:33;;;;;;;27.40;6.32;;;11.10;99.90;;;;;;5119161;27;20027;-73
2023/12/22 00:05:58;;;;;;;24.25;6.13;;;11.10;99.90;;;;;;5137816;27;20031;-72
2023/12/22 00:08:24;;;;;;;27.70;6.20;;;11.10;99.90;;;;;;5137392;27;20027;-72
2023/12/22 00:10:50;;;;;;;38.45;8.00;;;11.10;99.90;;;;;;5137628;27;20027;-71
2023/12/22 00:13:15;;;;;;;41.65;9.55;;;11.10;99.90;;;;;;5137397;27;20045;-71
2023/12/22 00:15:44;;;;;;;35.63;7.80;;;11.10;99.90;;;;;;5137577;27;20047;-71
2023/12/22 00:18:10;;;;;;;20.65;6.53;;;11.10;99.90;;;;;;5118983;27;20027;-73
2023/12/22 00:20:36;;;;;;;30.40;7.03;;;11.10;99.90;;;;;;5113260;27;20459;-72
2023/12/22 00:23:01;;;;;;;35.97;8.48;;;11.10;99.90;;;;;;5118422;27;20023;-71
2023/12/22 00:25:27;;;;;;;33.78;7.22;;;11.00;99.90;;;;;;5137264;27;20030;-69
2023/12/22 00:27:53;;;;;;;41.33;8.98;;;11.10;99.90;;;;;;5137156;27;20110;-73
2023/12/22 00:30:18;;;;;;;17.85;5.47;;;11.00;99.90;;;;;;5118684;27;20039;-72
2023/12/22 00:32:44;;;;;;;37.97;7.22;;;11.00;99.90;;;;;;5118525;27;20045;-72
2023/12/22 00:35:10;;;;;;;28.58;8.50;;;11.00;99.90;;;;;;5137362;27;20059;-72
2023/12/22 00:37:35;;;;;;;39.47;7.75;;;10.90;99.90;;;;;;5118222;27;20019;-72
2023/12/22 00:40:04;;;;;;;29.02;7.40;;;10.90;99.90;;;;;;5118487;27;20027;-72
2023/12/22 00:42:29;;;;;;;51.47;12.07;;;10.90;99.90;;;;;;5118340;27;20076;-73
2023/12/22 00:44:55;;;;;;;33.47;7.15;;;10.90;99.90;;;;;;5136972;27;20039;-72
2023/12/22 00:47:21;;;;;;;29.83;6.47;;;10.90;99.90;;;;;;5136858;27;20058;-72
2023/12/22 00:49:46;;;;;;;23.25;6.75;;;10.90;99.90;;;;;;5136931;27;20504;-72
2023/12/22 00:52:12;;;;;;;18.98;4.20;;;10.90;99.90;;;;;;5136578;27;20075;-75
2023/12/22 00:54:38;;;;;;;34.58;8.90;;;10.80;99.90;;;;;;5136541;27;20057;-72
2023/12/22 00:57:04;;;;;;;21.75;6.43;;;10.80;99.90;;;;;;5136736;27;20019;-72
2023/12/22 00:59:29;;;;;;;28.58;5.55;;;10.80;99.90;;;;;;5136839;27;20058;-73
2023/12/22 01:01:55;;;;;;;26.92;5.88;;;10.70;99.90;;;;;;5136570;27;20075;-72
2023/12/22 01:04:21;;;;;;;26.77;6.70;;;10.70;99.90;;;;;;5118349;27;20031;-75
2023/12/22 01:06:46;;;;;;;25.00;6.25;;;10.70;99.90;;;;;;5136347;27;20055;-73
2023/12/22 01:09:12;;;;;;;35.35;8.88;;;10.60;99.90;;;;;;5117307;27;20028;-74
2023/12/22 01:11:38;;;;;;;24.73;5.30;;;10.60;99.90;;;;;;5117588;27;20023;-73
2023/12/22 01:14:03;;;;;;;36.20;8.60;;;10.60;99.90;;;;;;5136676;27;20019;-72
2023/12/22 01:16:29;;;;;;;26.90;7.07;;;10.60;99.90;;;;;;5136491;27;20032;-72
2023/12/22 01:18:55;;;;;;;23.73;6.38;;;10.60;99.90;;;;;;5132582;28;20016;-74
2023/12/22 01:21:20;;;;;;;20.73;6.07;;;10.60;99.90;;;;;;5115998;28;20080;-73
2023/12/22 01:23:46;;;;;;;21.65;5.88;;;10.60;99.90;;;;;;5136686;28;20122;-73
2023/12/22 01:26:11;;;;;;;23.38;5.32;;;10.60;99.90;;;;;;5136487;28;20019;-73
2023/12/22 01:28:37;;;;;;;26.00;7.07;;;10.60;99.90;;;;;;5136577;28;20023;-72
2023/12/22 01:31:03;;;;;;;23.13;5.93;;;10.60;99.90;;;;;;5136071;28;20027;-71
2023/12/22 01:33:29;;;;;;;18.92;5.63;;;10.60;99.90;;;;;;5118047;28;20027;-72
2023/12/22 01:35:55;;;;;;;26.88;6.13;;;10.60;99.90;;;;;;5117478;28;20027;-74
2023/12/22 01:38:21;;;;;;;16.77;4.47;;;10.60;99.90;;;;;;5136000;28;20023;-74
2023/12/22 01:40:47;;;;;;;21.48;6.72;;;10.60;99.90;;;;;;5136036;28;20443;-73
2023/12/22 01:43:16;;;;;;;22.90;5.82;;;10.60;99.90;;;;;;5117746;28;20026;-74
2023/12/22 01:45:45;;;;;;;22.40;6.10;;;10.50;99.90;;;;;;5114218;28;20028;-74
2023/12/22 01:48:11;;;;;;;24.05;5.60;;;10.60;99.90;;;;;;5109623;28;20114;-72
2023/12/22 01:50:36;;;;;;;19.38;5.28;;;10.60;99.90;;;;;;5117662;28;20058;-74
2023/12/22 01:53:03;;;;;;;18.27;5.03;;;10.50;99.90;;;;;;5114153;28;20879;-74
2023/12/22 01:55:29;;;;;;;24.02;6.70;;;10.60;99.90;;;;;;5112724;28;20047;-73
2023/12/22 01:57:56;;;;;;;18.20;4.97;;;10.60;99.90;;;;;;5127958;28;20075;-73
2023/12/22 02:00:22;;;;;;;15.80;4.60;;;10.60;99.90;;;;;;5114085;28;20007;-74
2023/12/22 02:02:48;;;;;;;20.08;5.35;;;10.60;99.90;;;;;;5106168;28;20032;-74
2023/12/22 02:05:15;;;;;;;16.80;4.35;;;10.60;99.90;;;;;;5113208;28;20043;-76
2023/12/22 02:07:41;;;;;;;18.70;5.32;;;10.60;99.90;;;;;;5128272;28;20038;-75
2023/12/22 02:10:10;;;;;;;20.45;4.70;;;10.50;99.90;;;;;;5135688;28;20478;-74
2023/12/22 02:12:38;;;;;;;14.48;4.75;;;10.60;99.90;;;;;;5135887;28;20134;-72
2023/12/22 02:15:05;;;;;;;22.23;4.70;;;10.50;99.90;;;;;;5117316;28;20023;-76
2023/12/22 02:18:03;;;;;;;18.38;4.47;;;10.60;99.90;;;;;;5136119;28;20047;-75
2023/12/22 02:20:30;;;;;;;17.67;5.28;;;10.60;99.90;;;;;;5135061;27;20096;-73
2023/12/22 02:22:55;;;;;;;12.73;4.00;;;10.60;99.90;;;;;;5139298;27;20027;-74
2023/12/22 02:25:21;;;;;;;11.07;3.55;;;10.60;99.90;;;;;;5139785;27;20019;-75
2023/12/22 02:27:57;;;;;;;8.85;3.00;;;10.60;99.90;;;;;;5139406;27;20420;-74
2023/12/22 02:30:32;;;;;;;8.67;2.83;;;10.60;99.90;;;;;;5139725;27;20498;-75
2023/12/22 02:33:04;;;;;;;8.48;2.72;;;10.60;99.90;;;;;;5139275;27;20015;-74
2023/12/22 02:35:34;;;;;;;7.28;2.83;;;10.60;99.90;;;;;;5120938;27;20376;-73
2023/12/22 02:38:03;;;;;;;13.13;3.67;;;10.60;99.90;;;;;;5120819;27;20501;-74
2023/12/22 02:40:29;;;;;;;15.57;5.18;;;10.60;99.90;;;;;;5139329;27;20045;-73
2023/12/22 02:42:55;;;;;;;7.63;3.22;;;10.60;99.90;;;;;;5120910;27;20023;-76
2023/12/22 02:45:21;;;;;;;15.38;3.33;;;10.60;99.90;;;;;;5139134;27;20024;-73
2023/12/22 02:47:48;;;;;;;7.22;2.90;;;10.60;99.90;;;;;;5121035;27;20506;-75
2023/12/22 02:50:15;;;;;;;12.93;3.92;;;10.60;99.90;;;;;;5102881;27;20028;-73
2023/12/22 02:52:41;;;;;;;9.63;3.40;;;10.60;99.90;;;;;;5139166;27;20048;-76
2023/12/22 02:55:07;;;;;;;6.32;2.78;;;10.60;99.90;;;;;;5138544;27;20047;-75
2023/12/22 02:57:32;;;;;;;7.97;2.75;;;10.60;99.90;;;;;;5139176;27;20088;-74
2023/12/22 02:59:58;;;;;;;6.68;3.08;;;10.60;99.90;;;;;;5138757;27;20030;-74
2023/12/22 03:02:24;;;;;;;6.47;2.85;;;10.70;99.90;;;;;;5138882;27;20034;-76
2023/12/22 03:04:50;;;;;;;5.45;2.45;;;10.70;99.90;;;;;;5138030;27;20074;-75
2023/12/22 03:07:15;;;;;;;5.63;2.47;;;10.70;99.90;;;;;;5138376;27;20019;-75
2023/12/22 03:09:44;;;;;;;7.43;3.00;;;10.70;99.90;;;;;;5138468;27;20031;-76
2023/12/22 03:12:10;;;;;;;7.82;2.95;;;10.70;99.90;;;;;;5120465;27;20019;-73
2023/12/22 03:14:36;;;;;;;8.38;3.13;;;10.70;99.90;;;;;;5120091;27;20019;-75
2023/12/22 03:17:04;;;;;;;5.68;2.92;;;10.70;99.90;;;;;;5138865;27;20016;-73
2023/12/22 03:19:30;;;;;;;5.80;2.30;;;10.70;99.90;;;;;;5118144;27;20023;-74
2023/12/22 03:21:56;;;;;;;3.78;2.30;;;10.70;99.90;;;;;;5138574;27;20473;-72
2023/12/22 03:24:23;;;;;;;4.43;2.05;;;10.70;99.90;;;;;;5128432;27;20024;-73
2023/12/22 03:26:49;;;;;;;4.15;2.40;;;10.70;99.90;;;;;;5120251;27;20054;-73
2023/12/22 03:29:15;;;;;;;9.23;2.10;;;10.70;99.90;;;;;;5138463;27;20052;-73
2023/12/22 03:31:40;;;;;;;8.02;2.65;;;10.80;99.90;;;;;;5137520;27;20190;-75
2023/12/22 03:34:06;;;;;;;4.82;2.35;;;10.80;99.90;;;;;;5138462;27;20016;-73
2023/12/22 03:36:32;;;;;;;2.67;1.95;;;10.80;99.90;;;;;;5138410;27;20045;-73
2023/12/22 03:38:58;;;;;;;4.55;2.28;;;10.80;99.90;;;;;;5137683;27;20029;-73
2023/12/22 03:41:24;;;;;;;4.65;2.20;;;10.80;99.90;;;;;;5102894;28;20396;-73
2023/12/22 03:43:49;;;;;;;5.72;2.65;;;10.80;99.90;;;;;;5137126;27;20542;-75
2023/12/22 03:46:15;;;;;;;12.10;2.40;;;10.80;99.90;;;;;;5137510;27;20015;-75
2023/12/22 03:48:41;;;;;;;6.95;2.30;;;10.80;99.90;;;;;;5137603;27;20027;-76
2023/12/22 03:51:06;;;;;;;10.10;2.50;;;10.80;99.90;;;;;;5119406;27;20023;-75
2023/12/22 03:53:32;;;;;;;3.45;1.90;;;10.80;99.90;;;;;;5137640;27;20055;-75
2023/12/22 03:55:57;;;;;;;4.90;2.47;;;10.70;99.90;;;;;;5119282;27;20023;-73
2023/12/22 03:58:24;;;;;;;6.00;2.78;;;10.80;99.90;;;;;;5137760;27;20030;-75
2023/12/22 04:00:50;;;;;;;6.97;2.00;;;10.80;99.90;;;;;;5115742;27;20457;-73
2023/12/22 04:03:15;;;;;;;4.43;2.40;;;10.70;99.90;;;;;;5135081;27;20023;-76
2023/12/22 04:05:41;;;;;;;7.03;2.40;;;10.80;99.90;;;;;;5136932;27;20027;-73
2023/12/22 04:08:07;;;;;;;4.55;2.65;;;10.70;99.90;;;;;;5118463;27;20023;-73
2023/12/22 04:10:32;;;;;;;4.18;2.00;;;10.70;99.90;;;;;;5137173;27;20050;-76
2023/12/22 04:12:58;;;;;;;5.80;2.10;;;10.70;99.90;;;;;;5137495;27;20094;-74
2023/12/22 04:15:24;;;;;;;4.68;2.00;;;10.80;99.90;;;;;;5137768;27;20019;-74
2023/12/22 04:17:49;;;;;;;6.60;2.42;;;10.80;99.90;;;;;;5137400;27;20101;-75
2023/12/22 04:20:15;;;;;;;5.47;2.50;;;10.70;99.90;;;;;;5116530;27;20104;-73
2023/12/22 04:22:41;;;;;;;2.22;2.00;;;10.80;99.90;;;;;;5137278;27;20031;-73
2023/12/22 04:25:07;;;;;;;4.30;2.10;;;10.80;99.90;;;;;;5118463;27;20019;-74
2023/12/22 04:27:34;;;;;;;2.15;1.63;;;10.80;99.90;;;;;;5137347;27;20035;-74
2023/12/22 04:30:00;;;;;;;3.20;1.73;;;10.80;99.90;;;;;;5118954;27;20127;-74
2023/12/22 04:32:25;;;;;;;5.05;2.00;;;10.80;99.90;;;;;;5137121;27;20031;-75
2023/12/22 04:34:51;;;;;;;3.13;1.85;;;10.80;99.90;;;;;;5118773;27;20015;-74
2023/12/22 04:37:17;;;;;;;2.42;1.95;;;10.80;99.90;;;;;;5137089;27;20015;-74
2023/12/22 04:39:43;;;;;;;7.95;2.00;;;10.80;99.90;;;;;;5137002;27;20067;-74
2023/12/22 04:42:08;;;;;;;2.88;2.00;;;10.70;99.90;;;;;;5136950;27;20091;-73
2023/12/22 04:44:34;;;;;;;3.40;1.80;;;10.70;99.90;;;;;;5118459;27;20062;-75
2023/12/22 04:47:00;;;;;;;2.72;2.47;;;10.70;99.90;;;;;;5136870;27;20119;-73
2023/12/22 04:49:25;;;;;;;3.22;1.80;;;10.70;99.90;;;;;;5118586;27;20083;-75
2023/12/22 04:51:51;;;;;;;2.30;1.60;;;10.60;99.90;;;;;;5118278;27;20118;-75
2023/12/22 04:54:17;;;;;;;1.95;1.80;;;10.60;99.90;;;;;;5118282;27;20061;-78
2023/12/22 04:56:42;;;;;;;1.77;1.67;;;10.60;99.90;;;;;;5136726;27;20527;-77
2023/12/22 04:59:08;;;;;;;1.88;1.70;;;10.50;99.90;;;;;;5136992;27;20027;-75
2023/12/22 05:01:34;;;;;;;2.65;1.70;;;10.50;99.90;;;;;;5128733;27;20059;-76
2023/12/22 05:04:01;;;;;;;1.95;1.77;;;10.50;99.90;;;;;;5110728;27;20023;-76
2023/12/22 05:06:28;;;;;;;1.88;1.73;;;10.50;99.90;;;;;;5116105;27;20115;-75
2023/12/22 05:08:54;;;;;;;1.80;1.70;;;10.50;99.90;;;;;;5136486;27;20046;-75
2023/12/22 05:11:21;;;;;;;2.05;1.83;;;10.50;99.90;;;;;;5136272;27;20019;-75
2023/12/22 05:13:46;;;;;;;1.60;1.50;;;10.50;99.90;;;;;;5136495;27;20031;-76
2023/12/22 05:16:12;;;;;;;2.17;1.60;;;10.40;99.90;;;;;;5136504;27;20023;-79
2023/12/22 05:18:38;;;;;;;1.90;1.73;;;10.40;99.90;;;;;;5116553;28;20019;-75
2023/12/22 05:21:04;;;;;;;1.95;1.70;;;10.40;99.90;;;;;;5111572;27;20027;-74
2023/12/22 05:23:30;;;;;;;1.80;1.70;;;10.40;99.90;;;;;;5136175;27;20061;-75
2023/12/22 05:25:55;;;;;;;2.45;2.00;;;10.40;99.90;;;;;;5136507;28;20505;-74
2023/12/22 05:28:21;;;;;;;1.70;1.60;;;10.40;99.90;;;;;;5136577;28;20022;-74
2023/12/22 05:30:47;;;;;;;2.22;1.70;;;10.40;99.90;;;;;;5117963;28;20038;-74
2023/12/22 05:33:13;;;;;;;1.80;1.70;;;10.40;99.90;;;;;;5136810;28;20023;-74
2023/12/22 05:35:38;;;;;;;2.50;1.95;;;10.50;99.90;;;;;;5136573;28;20027;-73
2023/12/22 05:38:04;;;;;;;3.58;1.80;;;10.50;99.90;;;;;;5117649;28;20498;-74
2023/12/22 05:40:32;;;;;;;2.35;1.90;;;10.50;99.90;;;;;;5136530;28;20487;-74
2023/12/22 05:42:58;;;;;;;2.10;1.90;;;10.50;99.90;;;;;;5117947;28;20034;-74
2023/12/22 05:45:27;;;;;;;1.90;1.70;;;10.50;99.90;;;;;;5136431;28;20625;-74
2023/12/22 05:47:52;;;;;;;1.90;1.80;;;10.50;99.90;;;;;;5106688;28;20023;-74
2023/12/22 05:50:18;;;;;;;1.80;1.70;;;10.60;99.90;;;;;;5136453;28;20127;-75
2023/12/22 05:52:44;;;;;;;2.15;2.00;;;10.60;99.90;;;;;;5136262;28;20034;-75
2023/12/22 05:55:10;;;;;;;3.15;1.80;;;10.50;99.90;;;;;;5137866;27;20065;-72
2023/12/22 05:57:36;;;;;;;1.80;1.70;;;10.60;99.90;;;;;;5140614;27;20011;-74
2023/12/22 06:00:07;;;;;;;1.88;1.70;;;10.60;99.90;;;;;;5140408;27;20023;-75
2023/12/22 06:02:33;;;;;;;1.80;1.70;;;10.60;99.90;;;;;;5122156;27;20019;-75
2023/12/22 06:04:59;;;;;;;1.70;1.60;;;10.50;99.90;;;;;;5121714;27;20110;-74
2023/12/22 06:07:26;;;;;;;1.80;1.70;;;10.50;99.90;;;;;;5140381;27;20058;-73
2023/12/22 06:09:51;;;;;;;1.90;1.80;;;10.60;99.90;;;;;;5140012;27;20110;-75
2023/12/22 06:12:17;;;;;;;1.70;1.60;;;10.60;99.90;;;;;;5140325;27;20061;-74
2023/12/22 06:14:43;;;;;;;1.98;1.80;;;10.50;99.90;;;;;;5121540;27;20022;-74
2023/12/22 06:17:08;;;;;;;1.83;1.73;;;10.60;99.90;;;;;;5121927;27;20026;-73
2023/12/22 06:19:36;;;;;;;1.80;1.70;;;10.60;99.90;;;;;;5121392;27;20052;-74
2023/12/22 06:22:01;;;;;;;1.70;1.60;;;10.60;99.90;;;;;;5121749;27;20066;-74
2023/12/22 06:24:27;;;;;;;3.88;1.90;;;10.60;99.90;;;;;;5121292;27;20019;-74
2023/12/22 06:26:53;;;;;;;1.77;1.67;;;10.60;99.90;;;;;;5140180;27;20111;-74
2023/12/22 06:29:19;;;;;;;2.25;2.00;;;10.60;99.90;;;;;;5121094;27;20023;-75
2023/12/22 06:31:44;;;;;;;1.70;1.60;;;10.60;99.90;;;;;;5106831;28;20024;-72
2023/12/22 06:34:10;;;;;;;2.25;1.70;;;10.70;99.90;;;;;;5116170;27;20024;-74
2023/12/22 06:36:36;;;;;;;1.90;1.70;;;10.70;99.90;;;;;;5126046;27;20023;-74
2023/12/22 06:39:01;;;;;;;3.15;1.90;;;10.70;99.90;;;;;;5121731;27;20023;-75
2023/12/22 06:41:31;;;;;;;1.98;1.83;;;10.70;99.90;;;;;;5120933;27;20026;-75
2023/12/22 06:43:59;;;;;;;2.10;1.90;;;10.70;99.90;;;;;;5122107;27;20037;-75
2023/12/22 06:46:34;;;;;;;32.78;12.68;;;10.70;99.90;;;;;;5127318;27;20443;-73
2023/12/22 06:49:00;;;;;;;2.20;1.83;;;10.70;99.90;;;;;;5127879;27;20031;-73
2023/12/22 06:51:30;;;;;;;1.98;1.77;;;10.70;99.90;;;;;;5134098;27;20079;-73
2023/12/22 06:53:56;;;;;;;5.78;2.08;;;10.70;99.90;;;;;;5134042;27;20044;-73
2023/12/22 06:56:24;;;;;;;1.80;1.70;;;10.70;99.90;;;;;;5133706;27;20011;-73
2023/12/22 06:58:51;;;;;;;3.33;2.60;;;10.70;99.90;;;;;;5125888;27;20043;-75
2023/12/22 07:01:20;;;;;;;3.25;1.63;;;10.70;99.90;;;;;;5126578;27;20011;-74
2023/12/22 07:03:50;;;;;;;5.57;2.20;;;10.70;99.90;;;;;;5122404;27;20035;-74
2023/12/22 07:06:17;;;;;;;2.78;2.10;;;10.70;99.90;;;;;;5113285;27;20510;-75
2023/12/22 07:08:43;;;;;;;2.72;1.98;;;10.70;99.90;;;;;;5121530;27;20035;-72
2023/12/22 07:11:09;;;;;;;2.17;1.80;;;10.70;99.90;;;;;;5132486;27;20023;-73
2023/12/22 07:13:35;;;;;;;1.95;1.70;;;10.80;99.90;;;;;;5114636;27;20135;-74
2023/12/22 07:16:02;;;;;;;1.95;1.75;;;10.70;99.90;;;;;;5133656;27;20080;-75
2023/12/22 07:18:30;;;;;;;2.47;2.28;;;10.80;99.90;;;;;;5114457;27;20027;-75
2023/12/22 07:20:57;;;;;;;1.70;1.60;;;10.70;99.90;;;;;;5113645;27;20781;-75
2023/12/22 07:23:23;;;;;;;1.80;1.70;;;10.70;99.90;;;;;;5132419;27;20091;-76
2023/12/22 07:25:48;;;;;;;2.25;1.90;;;10.80;99.90;;;;;;5124530;27;20024;-75
2023/12/22 07:28:15;;;;;;;3.05;2.15;;;10.70;99.90;;;;;;5132445;27;20034;-77
2023/12/22 07:30:41;;;;;;;2.42;1.90;;;10.80;99.90;;;;;;5131187;27;20053;-75
2023/12/22 07:33:06;;;;;;;2.65;2.30;;;10.80;99.90;;;;;;5119951;27;20087;-75
2023/12/22 07:35:32;;;;;;;1.90;1.80;;;10.80;99.90;;;;;;5130197;27;20043;-73
2023/12/22 07:37:58;;;;;;;2.67;1.90;;;10.80;99.90;;;;;;5114820;27;20026;-75
2023/12/22 07:40:24;;;;;;;1.90;1.60;;;10.80;99.90;;;;;;5133739;27;20098;-75
2023/12/22 07:42:50;;;;;;;1.85;1.73;;;10.80;99.90;;;;;;5116327;27;20035;-73
2023/12/22 07:45:16;;;;;;;2.53;1.88;;;10.80;99.90;;;;;;5116083;27;20062;-74
2023/12/22 07:47:42;;;;;;;1.85;1.70;;;10.80;99.90;;;;;;5127629;27;20055;-74
2023/12/22 07:50:08;;;;;;;3.05;1.80;;;10.90;99.90;;;;;;5109219;27;20031;-74
2023/12/22 07:52:38;;;;;;;1.85;1.75;;;10.90;99.90;;;;;;5096139;28;20039;-73
2023/12/22 07:55:06;;;;;;;3.17;2.00;;;10.90;99.90;;;;;;5115995;27;20044;-76
2023/12/22 07:57:32;;;;;;;2.08;1.90;;;11.00;99.90;;;;;;5114577;27;20039;-74
2023/12/22 07:59:58;;;;;;;2.40;1.75;;;10.90;99.90;;;;;;5113133;27;20023;-75
2023/12/22 08:02:24;;;;;;;5.43;2.20;;;11.00;99.90;;;;;;5125646;27;20031;-73
2023/12/22 08:04:50;;;;;;;2.30;1.90;;;11.00;99.90;;;;;;5121061;27;20031;-75
2023/12/22 08:07:16;;;;;;;2.10;1.80;;;11.00;99.90;;;;;;5126313;27;20110;-75
2023/12/22 08:09:41;;;;;;;4.70;2.75;;;11.00;99.90;;;;;;5126355;27;20023;-75
2023/12/22 08:12:07;;;;;;;1.88;1.77;;;11.00;99.90;;;;;;5130479;27;20030;-75
2023/12/22 08:14:33;;;;;;;3.95;1.70;;;11.00;99.90;;;;;;5130843;27;20096;-74
2023/12/22 08:16:59;;;;;;;2.90;2.00;;;11.10;99.90;;;;;;5132063;27;20024;-74
2023/12/22 08:19:25;;;;;;;4.00;1.90;;;11.00;99.90;;;;;;5131202;27;20608;-74
2023/12/22 08:21:54;;;;;;;1.80;1.60;;;11.10;99.90;;;;;;5115989;27;20095;-75
2023/12/22 08:24:20;;;;;;;2.92;2.65;;;11.10;99.90;;;;;;5131357;27;20087;-74
2023/12/22 08:26:47;;;;;;;2.88;1.48;;;11.10;99.90;;;;;;5116979;27;20516;-76
2023/12/22 08:29:12;;;;;;;2.03;1.83;;;11.10;99.90;;;;;;5135342;27;20031;-74
2023/12/22 08:31:38;;;;;;;1.92;1.80;;;11.10;99.90;;;;;;5133022;27;20053;-76
2023/12/22 08:34:05;;;;;;;2.03;1.70;;;11.10;99.90;;;;;;5117219;27;20023;-76
2023/12/22 08:36:31;;;;;;;2.75;1.83;;;11.10;99.90;;;;;;5117317;27;20027;-76
2023/12/22 08:38:57;;;;;;;2.20;2.00;;;11.10;99.90;;;;;;5131369;27;20083;-75
2023/12/22 08:41:23;;;;;;;2.42;1.73;;;11.10;99.90;;;;;;5116101;27;20482;-76
2023/12/22 08:43:48;;;;;;;3.05;2.28;;;11.10;99.90;;;;;;5134071;27;20077;-74
2023/12/22 08:46:14;;;;;;;1.77;1.65;;;11.10;99.90;;;;;;5115537;27;20031;-75
2023/12/22 08:48:40;;;;;;;2.03;1.83;;;11.20;99.90;;;;;;5134143;27;21320;-75
2023/12/22 08:51:06;;;;;;;4.30;2.00;;;11.20;99.90;;;;;;5135233;27;20410;-77
2023/12/22 08:53:36;;;;;;;2.50;2.30;;;11.20;99.90;;;;;;5116304;27;20075;-75
2023/12/22 08:56:02;;;;;;;3.72;1.80;;;11.20;99.90;;;;;;5117392;27;20023;-73
2023/12/22 08:58:28;;;;;;;2.85;1.92;;;11.20;99.90;;;;;;5116989;27;20141;-77
2023/12/22 09:00:53;;;;;;;2.47;2.15;;;11.20;99.90;;;;;;5134972;27;20109;-77
2023/12/22 09:03:19;;;;;;;1.83;1.73;;;11.20;99.90;;;;;;5135512;27;20110;-78
2023/12/22 09:05:44;;;;;;;1.70;1.60;;;11.30;99.90;;;;;;5135650;27;20111;-77
2023/12/22 09:08:10;;;;;;;4.10;2.08;;;11.30;99.90;;;;;;5116505;27;20445;-77
2023/12/22 09:10:36;;;;;;;2.30;1.73;;;11.30;99.90;;;;;;5132859;27;20102;-76
2023/12/22 09:13:01;;;;;;;1.90;1.70;;;11.30;99.90;;;;;;5133928;27;20106;-75
2023/12/22 09:15:27;;;;;;;4.07;1.80;;;11.40;99.90;;;;;;5132138;27;20023;-75
2023/12/22 09:17:55;;;;;;;3.03;1.77;;;11.40;99.90;;;;;;5135506;27;20184;-77
2023/12/22 09:20:22;;;;;;;4.65;1.90;;;11.40;99.90;;;;;;5134138;27;20612;-76
2023/12/22 09:22:48;;;;;;;2.25;1.88;;;11.40;99.90;;;;;;5115040;28;20039;-75
2023/12/22 09:25:13;;;;;;;2.33;2.00;;;11.40;99.90;;;;;;5117177;28;20099;-76
2023/12/22 09:27:39;;;;;;;2.33;2.10;;;11.50;99.90;;;;;;5116728;28;20041;-77
2023/12/22 09:30:08;;;;;;;1.80;1.70;;;11.50;99.90;;;;;;5112375;28;20442;-76
2023/12/22 09:32:34;;;;;;;1.80;1.70;;;11.40;99.90;;;;;;5132347;28;20035;-75
2023/12/22 09:35:00;;;;;;;3.65;1.88;;;11.50;99.90;;;;;;5116935;28;20510;-76
2023/12/22 09:37:27;;;;;;;4.00;1.90;;;11.50;99.90;;;;;;5134975;28;20027;-75
2023/12/22 09:39:53;;;;;;;2.17;1.98;;;11.50;99.90;;;;;;5134115;28;20035;-77
2023/12/22 09:42:21;;;;;;;1.95;1.70;;;11.60;99.90;;;;;;5134618;28;20031;-79
2023/12/22 09:44:49;;;;;;;3.03;1.77;;;11.70;99.90;;;;;;5132202;28;20162;-79
2023/12/22 09:47:17;;;;;;;1.98;1.77;;;11.70;99.90;;;;;;5133703;28;20059;-79
2023/12/22 09:49:44;;;;;;;1.67;1.58;;;11.70;99.90;;;;;;5116077;28;20023;-77
2023/12/22 09:52:11;;;;;;;1.92;1.77;;;11.70;99.90;;;;;;5115730;28;20031;-77
2023/12/22 09:54:37;;;;;;;1.83;1.60;;;11.70;99.90;;;;;;5134739;28;20045;-81
2023/12/22 09:57:04;;;;;;;3.22;1.90;;;11.60;99.90;;;;;;5116508;28;20076;-78
2023/12/22 09:59:31;;;;;;;1.60;1.50;;;11.70;99.90;;;;;;5135300;28;20045;-78
2023/12/22 10:01:59;;;;;;;2.35;1.70;;;11.70;99.90;;;;;;5133039;28;20034;-80
2023/12/22 10:04:25;;;;;;;1.65;1.55;;;11.70;99.90;;;;;;5135075;28;20023;-76
2023/12/22 10:06:53;;;;;;;1.70;1.60;;;11.80;99.90;;;;;;5134032;28;20102;-76
2023/12/22 10:09:19;;;;;;;1.73;1.60;;;11.80;99.90;;;;;;5134778;28;20028;-81
2023/12/22 10:11:49;;;;;;;1.70;1.60;;;11.70;99.90;;;;;;5134365;28;20594;-77
2023/12/22 10:14:21;;;;;;;3.33;1.80;;;11.80;99.90;;;;;;5134935;28;20031;-80
2023/12/22 10:16:48;;;;;;;1.70;1.60;;;11.80;99.90;;;;;;5135054;28;20494;-77
2023/12/22 10:19:14;;;;;;;1.75;1.65;;;11.70;99.90;;;;;;5116188;28;20019;-81
2023/12/22 10:21:40;;;;;;;1.83;1.63;;;11.70;99.90;;;;;;5115142;28;20114;-81
2023/12/22 10:24:05;;;;;;;1.80;1.50;;;11.70;99.90;;;;;;5134555;28;20031;-80
2023/12/22 10:26:31;;;;;;;2.20;1.90;;;11.60;99.90;;;;;;5133196;28;20110;-79
2023/12/22 10:28:57;;;;;;;2.75;1.90;;;11.60;99.90;;;;;;5134901;28;20121;-77
2023/12/22 10:31:22;;;;;;;2.25;2.00;;;11.60;99.90;;;;;;5133742;28;20111;-78
2023/12/22 10:33:48;;;;;;;2.67;2.08;;;11.50;99.90;;;;;;5134760;28;20026;-78
2023/12/22 10:36:14;;;;;;;3.33;1.73;;;11.50;99.90;;;;;;5134879;28;20015;-78
2023/12/22 10:38:40;;;;;;;2.08;1.90;;;11.50;99.90;;;;;;5134621;28;20023;-76
2023/12/22 10:41:09;;;;;;;2.65;1.85;;;11.60;99.90;;;;;;5135087;27;20510;-75
2023/12/22 10:43:41;;;;;;;2.20;2.00;;;11.60;99.90;;;;;;5120067;27;20475;-79
2023/12/22 10:46:11;;;;;;;2.10;1.90;;;11.70;99.90;;;;;;5136652;27;20031;-79
2023/12/22 10:48:36;;;;;;;2.10;1.90;;;11.70;99.90;;;;;;5138279;27;20035;-79
2023/12/22 10:51:02;;;;;;;2.13;1.75;;;11.70;99.90;;;;;;5137170;27;20397;-80
2023/12/22 10:53:28;;;;;;;2.20;2.00;;;11.70;99.90;;;;;;5117919;27;20109;-78
2023/12/22 10:55:54;;;;;;;1.80;1.70;;;11.70;99.90;;;;;;5119888;27;20015;-78
2023/12/22 10:58:21;;;;;;;2.45;2.05;;;11.70;99.90;;;;;;5138260;27;20098;-78
2023/12/22 11:00:51;;;;;;;2.53;2.22;;;11.70;99.90;;;;;;5122835;27;20048;-77
2023/12/22 11:03:20;;;;;;;2.20;2.00;;;11.70;99.90;;;;;;5119525;27;20021;-76
2023/12/22 11:05:47;;;;;;;3.33;1.70;;;11.70;99.90;;;;;;5137879;27;20077;-78
2023/12/22 11:08:15;;;;;;;1.85;1.70;;;11.70;99.90;;;;;;5137521;27;20440;-78
2023/12/22 11:10:43;;;;;;;4.55;2.40;;;11.70;99.90;;;;;;5136739;27;20031;-77
2023/12/22 11:13:13;;;;;;;2.58;2.17;;;11.70;99.90;;;;;;5119236;27;20037;-77
2023/12/22 11:15:41;;;;;;;4.38;2.08;;;11.70;99.90;;;;;;5137835;27;20413;-76
2023/12/22 11:18:08;;;;;;;2.70;2.28;;;11.60;99.90;;;;;;5135519;27;20423;-75
2023/12/22 11:20:35;;;;;;;2.35;1.98;;;11.60;99.90;;;;;;5134968;27;20031;-76
2023/12/22 11:23:03;;;;;;;3.28;1.98;;;11.60;99.90;;;;;;5125135;27;20072;-75
2023/12/22 11:25:31;;;;;;;3.38;1.80;;;11.60;99.90;;;;;;5125930;27;20075;-73
2023/12/22 11:28:00;;;;;;;2.20;2.00;;;11.60;99.90;;;;;;5132567;27;20043;-75
2023/12/22 11:30:28;;;;;;;2.38;1.90;;;11.60;99.90;;;;;;5127953;27;20126;-75
2023/12/22 11:32:54;;;;;;;3.10;1.70;;;11.60;99.90;;;;;;5130922;27;20072;-74
2023/12/22 11:35:23;;;;;;;3.65;2.25;;;11.70;99.90;;;;;;5129114;27;20089;-75
2023/12/22 11:37:49;;;;;;;2.17;1.98;;;11.70;99.90;;;;;;5129341;27;20029;-76
2023/12/22 11:40:15;;;;;;;2.00;1.80;;;11.70;99.90;;;;;;5131077;27;20088;-76
2023/12/22 11:42:46;;;;;;;3.83;2.95;;;11.70;99.90;;;;;;5132106;27;20039;-75
2023/12/22 11:45:15;;;;;;;1.98;1.83;;;11.70;99.90;;;;;;5113965;27;20030;-72
2023/12/22 11:47:41;;;;;;;3.85;2.65;;;11.70;99.90;;;;;;5103546;27;20036;-73
2023/12/22 11:50:10;;;;;;;5.90;1.90;;;11.70;99.90;;;;;;5113417;27;20445;-74
2023/12/22 11:52:36;;;;;;;5.88;2.33;;;11.80;99.90;;;;;;5123657;27;20073;-75
2023/12/22 11:55:02;;;;;;;2.65;2.25;;;11.80;99.90;;;;;;5113938;27;20047;-74
2023/12/22 11:57:31;;;;;;;2.40;2.20;;;11.80;99.90;;;;;;5113203;27;20027;-75
2023/12/22 12:00:01;;;;;;;13.43;5.20;;;11.80;99.90;;;;;;5127772;27;20023;-74
2023/12/22 12:02:27;;;;;;;4.43;2.22;;;11.80;99.90;;;;;;5112393;27;20023;-74
2023/12/22 12:04:53;;;;;;;3.33;1.88;;;11.90;99.90;;;;;;5130172;27;20054;-75
2023/12/22 12:07:45;;;;;;;3.42;2.20;;;11.90;99.90;;;;;;5131689;27;20055;-74
2023/12/22 12:10:30;;;;;;;5.10;2.13;;;11.80;99.90;;;;;;5127296;27;20503;-74
2023/12/22 12:13:09;;;;;;;3.10;2.50;;;11.80;99.90;;;;;;5112126;27;20023;-75
2023/12/22 12:15:35;;;;;;;1.92;1.83;;;11.80;99.90;;;;;;5109204;27;20494;-73
2023/12/22 12:18:02;;;;;;;3.03;2.00;;;11.80;99.90;;;;;;5109138;27;20027;-74
2023/12/22 12:20:28;;;;;;;2.78;2.10;;;11.80;99.90;;;;;;5110278;27;20023;-74
2023/12/22 12:22:54;;;;;;;5.68;2.33;;;11.90;99.90;;;;;;5130611;27;20038;-75
2023/12/22 12:25:27;;;;;;;1.75;1.65;;;11.90;99.90;;;;;;5128835;27;20031;-73
2023/12/22 12:28:02;;;;;;;2.70;1.98;;;11.80;99.90;;;;;;5131154;27;20117;-74
2023/12/22 12:30:28;;;;;;;2.50;2.08;;;11.80;99.90;;;;;;5129897;27;20134;-74
2023/12/22 12:32:54;;;;;;;2.00;1.80;;;11.80;99.90;;;;;;5131010;27;20035;-76
2023/12/22 12:35:23;;;;;;;3.05;1.80;;;11.80;99.90;;;;;;5131557;27;20061;-74
2023/12/22 12:37:51;;;;;;;2.83;2.00;;;11.70;99.90;;;;;;5125967;27;20023;-73
2023/12/22 12:40:20;;;;;;;3.97;2.03;;;11.80;99.90;;;;;;5111011;27;20056;-75
2023/12/22 12:42:46;;;;;;;3.93;2.20;;;11.70;99.90;;;;;;5126537;27;20554;-73